createdAt,value
2019-05-28T00:00:41.135Z,99878.89
2019-05-28T00:05:44.586Z,99872.57
2019-05-28T00:10:48.337Z,99867.72
2019-05-28T00:15:52.560Z,99859.41
2019-05-28T00:20:56.068Z,99863.84
2019-05-28T00:25:59.487Z,99853.94
2019-05-28T00:31:02.969Z,99863.78
2019-05-28T00:36:06.460Z,99852.70
2019-05-28T00:41:11.547Z,99853.31
2019-05-28T00:46:15.031Z,99854.38
2019-05-28T00:51:18.457Z,99850.79
2019-05-28T00:56:22.358Z,99853.49
2019-05-28T01:01:25.771Z,99851.30
2019-05-28T01:06:29.250Z,99856.36
2019-05-28T01:11:32.671Z,99851.84
2019-05-28T01:16:36.118Z,99848.92
2019-05-28T01:21:42.282Z,99840.13
2019-05-28T01:26:44.749Z,99843.16
2019-05-28T01:31:48.153Z,99831.20
2019-05-28T01:36:51.588Z,99833.61
2019-05-28T01:41:55.001Z,99832.38
2019-05-28T01:46:58.522Z,99830.28
2019-05-28T01:52:01.947Z,99822.36
2019-05-28T01:57:05.366Z,99827.19
2019-05-28T02:02:08.790Z,99829.36
2019-05-28T02:07:12.283Z,99818.48
2019-05-28T02:12:15.697Z,99819.00
2019-05-28T02:17:19.117Z,99817.80
2019-05-28T02:22:22.578Z,99821.41
2019-05-28T02:27:26.014Z,99814.54
2019-05-28T02:32:30.213Z,99803.71
2019-05-28T02:37:33.746Z,99800.89
2019-05-28T02:42:37.335Z,99795.02
2019-05-28T02:47:40.761Z,99807.03
2019-05-28T02:52:45.237Z,99808.20
2019-05-28T02:57:49.994Z,99817.20
2019-05-28T03:02:53.966Z,99818.71
2019-05-28T03:07:58.041Z,99821.87
2019-05-28T03:13:01.452Z,99812.78
2019-05-28T03:18:06.652Z,99805.02
2019-05-28T03:23:13.094Z,99814.16
2019-05-28T03:28:16.599Z,99818.26
2019-05-28T03:33:20.021Z,99812.41
2019-05-28T03:38:25.944Z,99812.78
2019-05-28T03:43:29.359Z,99813.69
2019-05-28T03:48:32.796Z,99805.53
2019-05-28T03:53:36.221Z,99797.59
2019-05-28T03:58:39.649Z,99802.72
2019-05-28T04:03:43.079Z,99810.61
2019-05-28T04:08:46.496Z,99809.05
2019-05-28T04:13:50.037Z,99805.03
2019-05-28T04:18:53.537Z,99811.41
2019-05-28T04:23:56.979Z,99820.61
2019-05-28T04:29:00.421Z,99816.17
2019-05-28T04:34:04.043Z,99804.63
2019-05-28T04:39:08.560Z,99827.02
2019-05-28T04:44:11.995Z,99833.52
2019-05-28T04:49:15.488Z,99826.67
2019-05-28T04:54:18.977Z,99831.45
2019-05-28T04:59:22.410Z,99844.54
2019-05-28T05:04:25.857Z,99844.59
2019-05-28T05:09:29.303Z,99842.69
2019-05-28T05:14:32.730Z,99843.94
2019-05-28T05:19:36.198Z,99845.34
2019-05-28T05:24:39.624Z,99850.02
2019-05-28T05:29:43.125Z,99852.62
2019-05-28T05:34:47.085Z,99858.33
2019-05-28T05:39:51.154Z,99864.42
2019-05-28T05:44:54.516Z,99877.70
2019-05-28T05:49:57.980Z,99879.50
2019-05-28T05:55:01.451Z,99879.19
2019-05-28T06:00:06.997Z,99882.36
2019-05-28T06:05:10.461Z,99882.45
2019-05-28T06:10:14.538Z,99879.59
2019-05-28T06:15:18.298Z,99881.16
2019-05-28T06:20:21.796Z,99876.12
2019-05-28T06:25:25.481Z,99882.60
2019-05-28T06:30:28.993Z,99882.91
2019-05-28T06:35:32.421Z,99883.70
2019-05-28T06:40:35.875Z,99882.75
2019-05-28T06:45:39.401Z,99885.30
2019-05-28T06:50:42.828Z,99879.14
2019-05-28T06:55:46.245Z,99881.45
2019-05-28T07:00:49.675Z,99876.30
2019-05-28T07:06:06.501Z,99869.64
2019-05-28T07:10:58.606Z,99873.02
2019-05-28T07:16:02.361Z,99870.30
2019-05-28T07:21:05.783Z,99861.92
2019-05-28T07:26:09.211Z,99871.00
2019-05-28T07:31:12.627Z,99868.97
2019-05-28T07:36:16.054Z,99876.39
2019-05-28T07:41:19.469Z,99872.52
2019-05-28T07:46:23.302Z,99869.75
2019-05-28T07:51:26.699Z,99871.61
2019-05-28T07:56:30.147Z,99867.73
2019-05-28T08:01:33.653Z,99868.33
2019-05-28T08:06:51.712Z,99869.64
2019-05-28T08:11:42.217Z,99876.14
2019-05-28T08:16:52.874Z,99877.80
2019-05-28T08:21:50.858Z,99865.28
2019-05-28T08:26:54.292Z,99859.69
2019-05-28T08:31:57.696Z,99864.64
2019-05-28T08:37:05.933Z,99862.31
2019-05-28T08:42:06.360Z,99861.78
2019-05-28T08:47:10.565Z,99865.64
2019-05-28T08:52:14.064Z,99875.75
2019-05-28T08:57:17.477Z,99876.88
2019-05-28T09:02:27.659Z,99879.27
2019-05-28T09:07:26.107Z,99882.46
2019-05-28T09:12:29.509Z,99882.24
2019-05-28T09:17:32.920Z,99882.30
2019-05-28T09:22:36.349Z,99889.36
2019-05-28T09:27:39.779Z,99892.16
2019-05-28T09:32:43.227Z,99899.34
2019-05-28T09:37:46.635Z,99907.93
2019-05-28T09:42:50.106Z,99912.13
2019-05-28T09:47:55.303Z,99912.65
2019-05-28T09:52:58.854Z,99919.83
2019-05-28T09:58:02.273Z,99916.78
2019-05-28T10:03:06.580Z,99921.06
2019-05-28T10:08:10.045Z,99916.06
2019-05-28T10:13:13.487Z,99925.53
2019-05-28T10:18:16.905Z,99919.64
2019-05-28T10:23:20.372Z,99921.71
2019-05-28T10:28:23.799Z,99921.62
2019-05-28T10:33:27.214Z,99910.19
2019-05-28T10:38:30.703Z,99922.00
2019-05-28T10:43:34.130Z,99914.73
2019-05-28T10:48:37.565Z,99926.27
2019-05-28T10:53:41.243Z,99920.31
2019-05-28T10:58:44.649Z,99924.20
2019-05-28T11:03:48.065Z,99924.95
2019-05-28T11:08:51.498Z,99932.56
2019-05-28T11:13:54.915Z,99938.45
2019-05-28T11:18:58.370Z,99938.29
2019-05-28T11:24:02.644Z,99937.59
2019-05-28T11:29:06.229Z,99941.97
2019-05-28T11:34:09.656Z,99949.80
2019-05-28T11:39:13.151Z,99950.77
2019-05-28T11:44:16.552Z,99948.72
2019-05-28T11:49:19.974Z,99947.84
2019-05-28T11:54:23.485Z,99946.17
2019-05-28T11:59:26.889Z,99942.34
2019-05-28T12:04:30.345Z,99949.55
2019-05-28T12:09:33.804Z,99952.86
2019-05-28T12:14:37.229Z,99963.78
2019-05-28T12:19:40.817Z,99963.70
2019-05-28T12:24:44.205Z,99961.62
2019-05-28T12:29:51.895Z,99963.51
2019-05-28T12:34:52.781Z,99972.39
2019-05-28T12:39:56.213Z,99990.91
2019-05-28T12:45:09.328Z,99987.92
2019-05-28T12:50:18.974Z,99994.52
2019-05-28T12:55:13.876Z,99994.21
2019-05-28T13:00:19.785Z,100005.76
2019-05-28T13:05:26.274Z,100005.38
2019-05-28T13:10:29.789Z,100024.25
2019-05-28T13:15:33.242Z,100034.31
2019-05-28T13:20:36.667Z,100039.63
2019-05-28T13:25:40.130Z,100054.12
2019-05-28T13:30:43.539Z,100040.30
2019-05-28T13:35:47.284Z,100056.36
2019-05-28T13:40:50.694Z,100056.93
2019-05-28T13:45:54.127Z,100072.36
2019-05-28T13:50:57.619Z,100085.74
2019-05-28T13:56:01.042Z,100102.53
2019-05-28T14:01:05.063Z,100112.09
2019-05-28T14:06:08.459Z,100119.04
2019-05-28T14:11:11.956Z,100127.47
2019-05-28T14:16:15.391Z,100131.56
2019-05-28T14:21:18.858Z,100134.66
2019-05-28T14:26:22.390Z,100138.23
2019-05-28T14:31:25.838Z,100133.26
2019-05-28T14:36:29.273Z,100131.95
2019-05-28T14:41:32.716Z,100127.84
2019-05-28T14:46:36.188Z,100137.61
2019-05-28T14:51:39.642Z,100145.16
2019-05-28T14:56:43.073Z,100147.02
2019-05-28T15:01:46.539Z,100143.56
2019-05-28T15:06:50.117Z,100152.32
2019-05-28T15:11:53.563Z,100160.46
2019-05-28T15:16:56.999Z,100163.44
2019-05-28T15:22:00.587Z,100158.09
2019-05-28T15:27:04.075Z,100162.95
2019-05-28T15:32:08.490Z,100165.55
2019-05-28T15:37:12.008Z,100168.88
2019-05-28T15:42:20.199Z,100164.45
2019-05-28T15:47:20.661Z,100169.06
2019-05-28T15:52:24.081Z,100171.28
2019-05-28T15:57:27.506Z,100187.15
2019-05-28T16:02:30.996Z,100190.53
2019-05-28T16:07:34.470Z,100201.47
2019-05-28T16:12:37.884Z,100204.70
2019-05-28T16:17:41.330Z,100197.29
2019-05-28T16:22:44.816Z,100209.98
2019-05-28T16:27:48.262Z,100212.92
2019-05-28T16:32:51.733Z,100219.58
2019-05-28T16:37:55.162Z,100231.69
2019-05-28T16:42:58.631Z,100238.75
2019-05-28T16:48:02.103Z,100243.31
2019-05-28T16:53:05.489Z,100253.72
2019-05-28T16:58:08.921Z,100258.91
2019-05-28T17:03:12.340Z,100270.20
2019-05-28T17:08:16.008Z,100274.00
2019-05-28T17:13:19.558Z,100280.55
2019-05-28T17:18:23.088Z,100291.84
2019-05-28T17:23:26.527Z,100298.63
2019-05-28T17:28:30.030Z,100302.89
2019-05-28T17:33:33.456Z,100314.83
2019-05-28T17:38:37.567Z,100325.67
2019-05-28T17:43:41.096Z,100332.89
2019-05-28T17:48:46.277Z,100332.85
2019-05-28T17:53:51.847Z,100341.03
2019-05-28T17:58:55.301Z,100349.05
2019-05-28T18:03:58.723Z,100355.66
2019-05-28T18:09:02.201Z,100357.58
2019-05-28T18:14:05.664Z,100370.19
2019-05-28T18:19:09.094Z,100383.02
2019-05-28T18:24:12.522Z,100391.87
2019-05-28T18:29:16.793Z,100398.69
2019-05-28T18:34:20.270Z,100402.77
2019-05-28T18:39:25.549Z,100413.53
2019-05-28T18:44:30.199Z,100419.88
2019-05-28T18:49:33.669Z,100429.13
2019-05-28T18:54:37.942Z,100432.33
2019-05-28T18:59:42.402Z,100446.63
2019-05-28T19:04:45.853Z,100452.09
2019-05-28T19:09:49.407Z,100467.13
2019-05-28T19:14:52.913Z,100471.30
2019-05-28T19:19:56.350Z,100482.80
2019-05-28T19:24:59.793Z,100488.79
2019-05-28T19:30:04.625Z,100497.03
2019-05-28T19:35:09.597Z,100509.87
2019-05-28T19:40:14.627Z,100515.80
2019-05-28T19:45:19.086Z,100526.56
2019-05-28T19:50:22.489Z,100534.38
2019-05-28T19:55:25.916Z,100550.45
2019-05-28T20:00:30.021Z,100557.80
2019-05-28T20:05:33.429Z,100572.38
2019-05-28T20:10:36.912Z,100578.79
2019-05-28T20:15:40.353Z,100588.98
2019-05-28T20:20:43.795Z,100598.16
2019-05-28T20:25:51.155Z,100615.69
2019-05-28T20:30:53.262Z,100623.34
2019-05-28T20:35:56.706Z,100631.98
2019-05-28T20:41:00.129Z,100639.14
2019-05-28T20:46:04.492Z,100647.48
2019-05-28T20:51:19.639Z,100649.15
2019-05-28T20:56:13.021Z,100657.05
2019-05-28T21:01:16.447Z,100656.74
2019-05-28T21:06:19.882Z,100662.29
2019-05-28T21:11:23.334Z,100672.70
2019-05-28T21:16:26.769Z,100675.91
2019-05-28T21:21:30.191Z,100678.25
2019-05-28T21:26:33.633Z,100689.18
2019-05-28T21:31:37.075Z,100696.77
2019-05-28T21:36:40.507Z,100703.72
2019-05-28T21:41:43.939Z,100717.77
2019-05-28T21:46:47.625Z,100721.21
2019-05-28T21:51:51.091Z,100725.63
2019-05-28T21:56:55.213Z,100746.28
2019-05-28T22:02:00.067Z,100753.85
2019-05-28T22:07:03.826Z,100764.14
2019-05-28T22:12:08.393Z,100763.79
2019-05-28T22:17:13.227Z,100771.83
2019-05-28T22:22:16.825Z,100777.30
2019-05-28T22:27:20.275Z,100785.97
2019-05-28T22:32:23.768Z,100789.53
2019-05-28T22:37:27.204Z,100800.91
2019-05-28T22:42:30.644Z,100807.44
2019-05-28T22:47:34.062Z,100806.63
2019-05-28T22:52:37.667Z,100820.11
2019-05-28T22:57:41.159Z,100826.25
2019-05-28T23:02:44.590Z,100835.11
2019-05-28T23:07:48.002Z,100831.69
2019-05-28T23:12:51.470Z,100835.64
2019-05-28T23:17:54.897Z,100843.07
2019-05-28T23:22:58.383Z,100847.73
2019-05-28T23:28:01.789Z,100848.70
2019-05-28T23:33:06.259Z,100861.45
2019-05-28T23:38:09.828Z,100875.85
2019-05-28T23:43:13.831Z,100884.98
2019-05-28T23:48:18.512Z,100883.58
2019-05-28T23:53:22.073Z,100885.39
2019-05-28T23:58:25.558Z,100885.39
